Potsdam, NY

10:27 AM EST on December 26, 2014 (GMT -0500)
ERC, Clarkson Campus | Change Station
CLOSE
Current Station
Personal Weather Station
Location: Potsdam, NY
Elevation: 479 ft
Nearby Weather Stations

Elev 479 ft 44.66 °N, 75.00 °W | Updated 4 minutes ago

Overcast
Overcast
38.4 °F
Feels Like 38 °F
N
3.0
Wind Variable Wind from SSW
Gusts 14.0 mph

Today
High -- | Low -- °F
--% Chance of Precip.
Yesterday
High -- | Low -- °F
Precip. -- in
7:35 AM 4:25 PM
Waxing Crescent, 26% visible
Pressure 30.17 in
Visibility 10.0 miles
Clouds Scattered Clouds 3800 ft
Overcast 6000 ft
Windchill 38 °F
Dew Point 31 °F
Humidity 74%
Rainfall 0.00 in
Snow Depth Not available.
UV 0.7 out of 12
Pollen .10 out of 12
Air Quality Not available.
Flu Activity Not available.
METAR KMSS 261453Z AUTO 23013G21KT 10SM SCT038 OVC060 05/M01 A3015 RMK AO2 SLP214 T00501011 51018

More Conditions Fewer Conditions

Pressure 30.17 in
Visibility 10.0 miles
Clouds Scattered Clouds 3800 ft
Overcast 6000 ft
Windchill 38 °F
Dew Point 31 °F
Humidity 74%
Rainfall 0.00 in
Snow Depth Not available.
UV 0.7 out of 12
Pollen .10 out of 12
Air Quality Not available.
Flu Activity Not available.
METAR KMSS 261453Z AUTO 23013G21KT 10SM SCT038 OVC060 05/M01 A3015 RMK AO2 SLP214 T00501011 51018

More Conditions Fewer Conditions

10-Day Weather Forecast

Almanac

Astronomy

Dec. 26, 2014 Rise Set
Actual Time
Civil Twilight
Nautical Twilight
Astronomical Twilight
Moon
Length of Visible Light
Length of Day
Tomorrow will be .
, % of the Moon is Illuminated

Today's Extremes

State Highs State Lows

Community

WunderPhotos

Upload Photos

1,780,609 photos uploaded!

WunderBlogs® & News

Nearby

Air Quality

  Air Quality AQ Index Pollutant
Not available.

Snow Depth

Station Depth Elevation

Earthquake Activity

City Distance Mag. Time & Date
Minimum magnitude displayed is 2.5.

Coastal Water Temperatures

Place Temperature

Nearby Weather Stations